Time;durP1;ratioP1;P1;durP2;ratioP2;P2;SDS_P1;SDS_P2;PMS_P1;PMS_P2;Temp;Humidity;BMP_temperature;BMP_pressure;BME280_temperature;BME280_humidity;BME280_pressure;Samples;Min_cycle;Max_cycle;Signal;HPM_P1;HPM_P2
2022/07/03 00:00:53;;;;;;;4.93;4.43;;;23.20;54.70;;;25.92;40.96;101603.91;5092263;28;20192;-64
2022/07/03 00:03:22;;;;;;;4.10;2.67;;;23.20;54.60;;;25.92;41.49;101604.72;5093018;28;20538;-64
2022/07/03 00:05:49;;;;;;;2.23;2.03;;;23.20;54.70;;;25.92;41.38;101610.13;5092373;28;20185;-64
2022/07/03 00:08:17;;;;;;;3.77;2.07;;;23.20;54.70;;;25.89;41.66;101599.84;5092333;28;20208;-65
2022/07/03 00:10:44;;;;;;;2.97;2.00;;;23.10;54.70;;;25.84;41.26;101594.38;5096098;28;20199;-64
2022/07/03 00:13:12;;;;;;;3.60;2.03;;;23.10;54.90;;;25.81;41.27;101600.31;5096388;28;20184;-64
2022/07/03 00:15:39;;;;;;;3.80;2.53;;;23.00;55.00;;;25.75;41.35;101593.22;5096426;28;20189;-64
2022/07/03 00:18:07;;;;;;;2.70;2.27;;;23.00;55.30;;;25.70;41.53;101597.75;5096138;28;20184;-64
2022/07/03 00:20:44;;;;;;;3.13;2.10;;;22.90;55.40;;;25.63;42.22;101595.25;5095820;28;20192;-64
2022/07/03 00:23:17;;;;;;;4.50;2.70;;;22.90;55.40;;;25.57;42.20;101588.19;5096332;28;20514;-63
2022/07/03 00:25:47;;;;;;;2.80;2.50;;;22.80;55.50;;;25.53;41.75;101590.56;5095173;28;20204;-64
2022/07/03 00:28:14;;;;;;;4.53;3.23;;;22.80;55.50;;;25.52;42.13;101582.72;5095809;28;20208;-64
2022/07/03 00:30:47;;;;;;;4.13;2.50;;;22.70;55.40;;;25.48;41.64;101582.41;5096362;28;20193;-64
2022/07/03 00:33:15;;;;;;;2.17;2.07;;;22.70;55.50;;;25.47;41.53;101575.38;5096104;28;20614;-64
2022/07/03 00:35:49;;;;;;;3.97;2.60;;;22.70;55.50;;;25.44;41.53;101581.28;5096160;28;20543;-64
2022/07/03 00:38:16;;;;;;;2.53;2.00;;;22.60;55.40;;;25.45;41.73;101585.63;5094606;28;20189;-64
2022/07/03 00:40:45;;;;;;;2.30;2.07;;;22.60;55.40;;;25.44;41.93;101581.28;5094931;28;20193;-64
2022/07/03 00:43:15;;;;;;;2.10;1.90;;;22.60;55.50;;;25.42;41.43;101572.59;5094746;28;20638;-64
2022/07/03 00:45:48;;;;;;;2.47;1.97;;;22.60;55.50;;;25.40;41.44;101576.63;5096023;28;20195;-64
2022/07/03 00:48:18;;;;;;;5.57;2.67;;;22.60;55.60;;;25.38;41.35;101571.47;5095676;28;20671;-64
2022/07/03 00:50:51;;;;;;;3.67;2.00;;;22.50;55.40;;;25.34;42.06;101575.72;5095139;28;20196;-64
2022/07/03 00:53:28;;;;;;;1.73;1.63;;;22.50;55.50;;;25.30;42.11;101554.91;5095768;28;20184;-64
2022/07/03 00:55:59;;;;;;;2.40;1.77;;;22.50;55.50;;;25.30;41.61;101558.44;5095717;28;20204;-64
2022/07/03 00:58:28;;;;;;;2.20;2.00;;;22.50;55.40;;;25.27;41.51;101558.13;5095242;28;20197;-64
2022/07/03 01:00:57;;;;;;;3.97;2.20;;;22.50;55.50;;;25.27;41.88;101564.31;5094849;28;20191;-64
2022/07/03 01:03:28;;;;;;;2.23;2.03;;;22.50;55.30;;;25.27;41.59;101552.75;5095367;28;20222;-64
2022/07/03 01:06:08;;;;;;;2.83;2.30;;;22.50;55.40;;;25.25;42.00;101561.06;5096781;28;20312;-63
2022/07/03 01:08:45;;;;;;;2.70;2.03;;;22.50;55.30;;;25.24;41.98;101551.38;5095380;28;20222;-64
2022/07/03 01:11:23;;;;;;;2.27;1.93;;;22.50;55.30;;;25.21;42.03;101549.16;5094957;28;20215;-64
2022/07/03 01:14:08;;;;;;;3.33;2.30;;;22.50;55.40;;;25.19;41.73;101547.78;5094754;28;20184;-64
2022/07/03 01:16:45;;;;;;;4.30;2.30;;;22.50;55.30;;;25.18;42.24;101544.28;5095286;28;20257;-64
2022/07/03 01:19:37;;;;;;;3.13;1.60;;;22.40;55.30;;;25.12;41.96;101556.06;5094516;28;20188;-64
2022/07/03 01:22:30;;;;;;;3.83;2.30;;;22.50;55.50;;;25.11;42.21;101550.91;5094465;28;20216;-62
2022/07/03 01:25:24;;;;;;;2.20;2.00;;;22.50;55.50;;;25.09;42.12;101548.47;5094661;28;20205;-64
2022/07/03 01:28:18;;;;;;;3.10;1.80;;;22.40;55.40;;;25.06;42.37;101546.28;5095035;28;20185;-64
2022/07/03 01:30:50;;;;;;;2.00;1.80;;;22.50;55.60;;;25.08;42.30;101538.75;5093985;28;20197;-64
2022/07/03 01:33:21;;;;;;;2.60;2.20;;;22.40;55.40;;;25.04;42.22;101543.03;5094764;28;20273;-64
2022/07/03 01:36:04;;;;;;;2.20;2.00;;;22.40;55.40;;;25.01;42.23;101538.13;5095035;28;20197;-64
2022/07/03 01:38:35;;;;;;;4.30;2.30;;;22.40;55.60;;;25.03;42.43;101540.59;5094428;28;20658;-64
2022/07/03 01:41:06;;;;;;;2.93;2.33;;;22.30;55.60;;;24.97;42.04;101534.31;5093560;28;20671;-64
2022/07/03 01:43:39;;;;;;;3.70;2.00;;;22.30;55.70;;;24.92;42.68;101539.63;5110702;28;20528;-64
2022/07/03 01:46:06;;;;;;;4.13;2.10;;;22.30;55.90;;;24.86;42.33;101535.25;5095325;28;20196;-64
2022/07/03 01:48:36;;;;;;;2.80;1.90;;;22.20;55.90;;;24.83;43.04;101541.13;5093833;28;20208;-63
2022/07/03 01:51:05;;;;;;;3.53;2.40;;;22.10;56.20;;;24.83;43.05;101546.50;5094914;28;20294;-63
2022/07/03 01:53:33;;;;;;;4.30;2.07;;;22.10;56.50;;;24.83;43.17;101533.03;5095767;28;20192;-63
2022/07/03 01:56:02;;;;;;;2.77;2.10;;;22.10;56.50;;;24.83;42.87;101530.34;5095434;28;20185;-63
2022/07/03 01:58:29;;;;;;;2.90;2.07;;;22.10;56.60;;;24.83;42.91;101541.13;5094962;28;20187;-63
2022/07/03 02:01:19;;;;;;;2.40;2.20;;;22.10;56.50;;;24.75;43.11;101538.81;5094276;28;20212;-63
2022/07/03 02:04:02;;;;;;;4.37;2.00;;;22.10;56.50;;;24.70;42.72;101536.03;5094472;28;20216;-64
2022/07/03 02:06:39;;;;;;;2.20;2.00;;;22.10;56.50;;;24.66;43.61;101540.31;5095038;28;20203;-63
2022/07/03 02:09:10;;;;;;;3.30;2.83;;;22.00;56.90;;;24.66;43.44;101545.69;5094736;28;20220;-64
2022/07/03 02:11:54;;;;;;;3.70;3.40;;;22.00;57.20;;;24.63;43.51;101536.22;5094804;28;20274;-64
2022/07/03 02:14:28;;;;;;;2.90;2.13;;;22.00;57.40;;;24.65;43.64;101538.69;5110514;28;20216;-65
2022/07/03 02:17:10;;;;;;;3.00;2.40;;;22.00;57.50;;;24.62;43.41;101533.78;5094794;28;20192;-64
2022/07/03 02:19:49;;;;;;;2.80;2.13;;;21.90;57.50;;;24.59;43.53;101536.97;5094436;28;20184;-64
2022/07/03 02:22:20;;;;;;;2.47;2.27;;;21.90;57.60;;;24.56;43.64;101530.22;5094388;28;20220;-64
2022/07/03 02:24:47;;;;;;;4.80;3.40;;;21.90;57.80;;;24.51;43.93;101532.81;5092931;28;20208;-65
2022/07/03 02:27:22;;;;;;;2.77;2.57;;;21.90;57.70;;;24.43;44.21;101532.44;5095044;28;20362;-64
2022/07/03 02:29:59;;;;;;;3.37;2.27;;;21.80;58.00;;;24.34;44.67;101523.16;5094547;28;20220;-64
2022/07/03 02:32:34;;;;;;;3.30;2.33;;;21.70;58.30;;;24.26;44.91;101528.94;5092405;28;20208;-64
2022/07/03 02:35:05;;;;;;;2.47;2.27;;;21.60;58.50;;;24.19;44.82;101524.53;5094904;28;20188;-64
2022/07/03 02:37:44;;;;;;;2.50;2.30;;;21.60;58.90;;;24.12;45.07;101534.66;5093562;28;20619;-64
2022/07/03 02:40:24;;;;;;;3.93;2.27;;;21.50;59.20;;;24.08;45.35;101532.72;5094003;28;20565;-65
2022/07/03 02:43:13;;;;;;;2.60;2.40;;;21.40;59.70;;;24.02;45.66;101533.63;5093740;28;20216;-63
2022/07/03 02:45:50;;;;;;;2.23;2.03;;;21.40;60.00;;;23.98;45.59;101527.94;5094730;28;20188;-66
2022/07/03 02:48:29;;;;;;;2.60;2.40;;;21.30;59.80;;;23.92;46.01;101533.44;5095294;28;20199;-64
2022/07/03 02:51:09;;;;;;;3.00;2.33;;;21.30;60.30;;;23.87;46.16;101530.66;5095468;28;20220;-64
2022/07/03 02:53:48;;;;;;;3.47;2.53;;;21.20;60.50;;;23.85;46.60;101533.63;5095382;28;20227;-64
2022/07/03 02:56:31;;;;;;;4.07;2.87;;;21.20;61.30;;;23.85;46.63;101538.16;5094653;28;20184;-64
2022/07/03 02:59:12;;;;;;;2.97;2.40;;;21.20;62.20;;;23.86;46.32;101524.50;5094079;28;20185;-64
2022/07/03 03:01:55;;;;;;;2.63;2.43;;;21.20;61.10;;;23.85;46.35;101528.22;5093390;28;20216;-64
2022/07/03 03:04:30;;;;;;;2.80;2.60;;;21.20;61.20;;;23.84;46.37;101525.78;5094887;28;20226;-64
2022/07/03 03:07:08;;;;;;;2.83;2.63;;;21.20;61.30;;;23.83;46.84;101524.97;5093749;28;20192;-64
2022/07/03 03:09:43;;;;;;;3.57;2.20;;;21.10;61.80;;;23.84;46.82;101526.63;5093526;28;20223;-64
2022/07/03 03:12:13;;;;;;;3.07;2.77;;;21.20;61.60;;;23.87;46.84;101531.50;5093166;28;20215;-63
2022/07/03 03:14:43;;;;;;;2.90;2.70;;;21.10;61.30;;;23.86;46.74;101524.50;5094429;28;20188;-64
2022/07/03 03:17:17;;;;;;;2.60;2.40;;;21.10;61.50;;;23.87;46.63;101531.50;5094225;28;20219;-64
2022/07/03 03:19:54;;;;;;;3.53;2.30;;;21.20;61.70;;;23.90;46.80;101524.81;5093924;28;20263;-64
2022/07/03 03:22:39;;;;;;;3.10;2.50;;;21.20;61.90;;;23.94;46.80;101521.38;5093119;28;20211;-64
2022/07/03 03:25:11;;;;;;;2.43;2.23;;;21.20;61.50;;;24.01;46.27;101519.34;5093137;28;20185;-64
2022/07/03 03:27:39;;;;;;;3.40;3.10;;;21.30;61.40;;;24.06;46.32;101524.00;5093098;28;20200;-64
2022/07/03 03:30:08;;;;;;;2.77;2.57;;;21.30;61.20;;;24.11;45.70;101516.88;5093673;28;20218;-64
2022/07/03 03:32:38;;;;;;;3.13;2.87;;;21.30;60.70;;;24.15;45.39;101518.00;5093109;28;20214;-64
2022/07/03 03:35:09;;;;;;;4.60;2.90;;;21.30;60.20;;;24.17;45.35;101520.47;5095878;28;20188;-64
2022/07/03 03:37:37;;;;;;;3.40;2.70;;;21.40;59.70;;;24.18;45.43;101525.59;5096880;28;20219;-64
2022/07/03 03:40:06;;;;;;;2.60;2.40;;;21.40;60.20;;;24.19;45.20;101524.53;5078141;28;20189;-64
2022/07/03 03:42:33;;;;;;;3.23;2.93;;;21.40;59.70;;;24.22;45.15;101524.03;5073711;28;20209;-64
2022/07/03 03:45:01;;;;;;;4.00;2.57;;;21.40;59.80;;;24.23;44.57;101531.06;5073352;28;20193;-64
2022/07/03 03:47:29;;;;;;;3.97;3.17;;;21.50;59.00;;;24.21;44.56;101517.03;5073341;28;20197;-64
2022/07/03 03:49:56;;;;;;;4.07;2.87;;;21.50;58.80;;;24.18;44.40;101517.53;5071706;28;20216;-64
2022/07/03 03:52:26;;;;;;;2.47;2.27;;;21.50;58.70;;;24.18;44.46;101516.69;5077224;28;20215;-64
2022/07/03 03:54:53;;;;;;;3.97;3.57;;;21.40;58.90;;;24.18;44.86;101517.53;5093762;28;20188;-64
2022/07/03 03:57:22;;;;;;;4.97;2.77;;;21.50;59.20;;;24.20;44.79;101520.78;5093479;28;20218;-64
2022/07/03 03:59:50;;;;;;;3.33;2.87;;;21.50;59.50;;;24.20;45.32;101518.09;5093262;28;20631;-64
2022/07/03 04:02:19;;;;;;;5.47;3.17;;;21.50;59.80;;;24.20;45.25;101515.41;5093030;28;20208;-64
2022/07/03 04:04:46;;;;;;;3.07;2.77;;;21.40;59.90;;;24.20;45.61;101520.78;5093736;28;20200;-64
2022/07/03 04:07:14;;;;;;;4.23;3.00;;;21.40;60.20;;;24.21;46.11;101518.91;5093909;28;20190;-64
2022/07/03 04:09:44;;;;;;;6.80;3.50;;;21.40;60.40;;;24.19;45.85;101508.41;5093210;28;20223;-64
2022/07/03 04:12:12;;;;;;;3.57;3.10;;;21.50;60.50;;;24.17;45.83;101510.53;5093834;28;20250;-64
2022/07/03 04:14:39;;;;;;;3.43;2.80;;;21.50;60.50;;;24.20;46.28;101507.31;5093628;28;20195;-63
2022/07/03 04:17:07;;;;;;;7.17;3.20;;;21.50;60.90;;;24.24;46.35;101504.97;5093365;28;20573;-64
2022/07/03 04:19:35;;;;;;;3.07;2.83;;;21.50;61.40;;;24.29;46.02;101513.13;5109007;28;20228;-63
2022/07/03 04:22:08;;;;;;;3.90;3.47;;;21.50;61.40;;;24.36;46.24;101523.72;5092587;28;20639;-63
2022/07/03 04:24:35;;;;;;;6.33;3.23;;;21.50;61.60;;;24.41;46.28;101521.94;5092149;28;20208;-63
2022/07/03 04:27:04;;;;;;;4.10;3.67;;;21.60;62.00;;;24.38;46.94;101517.03;5092878;28;20677;-63
2022/07/03 04:29:32;;;;;;;3.50;3.20;;;21.60;62.30;;;24.40;46.68;101522.16;5093006;28;20553;-63
2022/07/03 04:32:00;;;;;;;3.37;3.07;;;21.60;61.80;;;24.47;46.36;101520.94;5092473;28;20209;-64
2022/07/03 04:34:27;;;;;;;4.33;3.50;;;21.70;61.70;;;24.57;46.84;101515.69;5091712;28;20560;-64
2022/07/03 04:36:55;;;;;;;5.23;3.60;;;21.70;61.80;;;24.71;46.09;101521.53;5092993;28;20220;-64
2022/07/03 04:39:22;;;;;;;5.60;3.50;;;21.80;61.90;;;24.79;45.60;101526.53;5093066;28;20191;-64
2022/07/03 04:41:49;;;;;;;6.67;3.80;;;21.80;61.50;;;24.83;45.72;101516.88;5092566;28;20208;-64
2022/07/03 04:44:18;;;;;;;4.50;3.90;;;21.90;61.40;;;24.87;45.93;101523.41;5092370;28;20203;-63
2022/07/03 04:46:45;;;;;;;4.40;4.00;;;21.90;61.40;;;24.86;45.60;101529.88;5093175;28;20189;-64
2022/07/03 04:49:13;;;;;;;4.13;3.73;;;21.90;61.20;;;24.84;45.60;101534.69;5093461;28;20180;-64
2022/07/03 04:51:40;;;;;;;4.40;3.70;;;21.90;61.40;;;24.79;45.73;101534.63;5093045;28;20553;-64
2022/07/03 04:54:08;;;;;;;4.67;3.87;;;21.90;61.30;;;24.73;45.36;101539.06;5094039;28;20267;-64
2022/07/03 04:56:35;;;;;;;4.33;3.70;;;21.80;61.10;;;24.66;45.72;101534.91;5096833;28;20631;-64
2022/07/03 04:59:02;;;;;;;3.70;3.33;;;21.80;61.00;;;24.60;45.36;101538.63;5096132;28;20193;-64
2022/07/03 05:01:31;;;;;;;4.77;3.53;;;21.80;60.80;;;24.54;45.76;101542.28;5095821;28;20212;-64
2022/07/03 05:03:58;;;;;;;3.83;3.53;;;21.70;60.90;;;24.49;45.60;101534.13;5095886;28;20246;-64
2022/07/03 05:06:26;;;;;;;3.80;3.50;;;21.60;60.80;;;24.43;45.88;101540.50;5095312;28;20200;-64
2022/07/03 05:08:54;;;;;;;4.13;3.17;;;21.60;60.80;;;24.37;46.06;101541.47;5096593;28;20204;-64
2022/07/03 05:11:22;;;;;;;5.00;3.43;;;21.50;61.10;;;24.34;45.93;101542.81;5095719;28;20231;-64
2022/07/03 05:13:49;;;;;;;4.33;3.70;;;21.50;61.20;;;24.31;46.03;101537.09;5096307;28;20188;-64
2022/07/03 05:16:17;;;;;;;3.70;3.10;;;21.50;61.30;;;24.28;45.68;101535.72;5095313;28;20204;-64
2022/07/03 05:18:45;;;;;;;3.50;3.20;;;21.50;61.20;;;24.28;46.01;101537.56;5096054;28;20224;-64
2022/07/03 05:21:13;;;;;;;5.43;3.27;;;21.40;61.20;;;24.25;45.63;101544.25;5095463;28;20205;-64
2022/07/03 05:23:40;;;;;;;3.93;3.47;;;21.40;61.10;;;24.27;45.95;101538.66;5096094;28;20188;-64
2022/07/03 05:26:08;;;;;;;4.47;3.37;;;21.40;61.60;;;24.33;46.25;101543.88;5096211;28;20216;-64
2022/07/03 05:28:35;;;;;;;3.33;3.03;;;21.50;61.70;;;24.40;45.84;101547.19;5096684;28;20184;-64
2022/07/03 05:31:03;;;;;;;3.50;3.30;;;21.50;61.60;;;24.49;45.92;101547.59;5095551;28;20220;-64
2022/07/03 05:33:30;;;;;;;6.13;2.80;;;21.50;61.40;;;24.55;45.67;101546.63;5095825;28;20226;-64
2022/07/03 05:36:00;;;;;;;3.63;3.10;;;21.60;61.30;;;24.65;45.62;101544.88;5095496;28;20197;-64
2022/07/03 05:41:13;;;;;;;5.07;3.20;;;21.70;60.80;;;24.77;44.86;101555.59;5094139;28;20576;-65
2022/07/03 05:43:41;;;;;;;3.03;2.80;;;21.80;60.60;;;24.83;45.01;101559.97;5095913;28;20196;-64
2022/07/03 05:46:08;;;;;;;3.80;2.90;;;21.80;60.40;;;24.91;44.49;101554.19;5096163;28;20188;-64
2022/07/03 05:48:36;;;;;;;4.83;2.93;;;21.90;60.50;;;24.99;44.88;101558.28;5095777;28;20189;-65
2022/07/03 05:51:05;;;;;;;4.87;3.57;;;22.00;60.20;;;25.04;44.73;101555.66;5094923;28;20597;-63
2022/07/03 05:53:32;;;;;;;4.57;2.73;;;22.00;59.80;;;25.11;44.16;101564.38;5095920;28;20642;-64
2022/07/03 05:56:00;;;;;;;2.50;2.30;;;22.10;59.60;;;25.18;44.36;101554.22;5095285;28;20184;-64
2022/07/03 05:58:27;;;;;;;2.93;2.73;;;22.20;59.30;;;25.25;43.18;101560.25;5095782;28;20195;-65
2022/07/03 06:00:55;;;;;;;5.20;2.80;;;22.20;58.70;;;25.31;43.20;101557.38;5094527;28;20200;-64
2022/07/03 06:03:22;;;;;;;3.53;2.83;;;22.30;58.50;;;25.40;43.48;101558.56;5095298;28;20189;-64
2022/07/03 06:05:50;;;;;;;2.63;2.40;;;22.40;58.20;;;25.46;42.44;101559.44;5094203;28;20212;-64
2022/07/03 06:08:18;;;;;;;2.57;2.20;;;22.40;57.70;;;25.53;42.89;101558.19;5095023;28;20184;-64
2022/07/03 06:10:46;;;;;;;5.23;2.70;;;22.50;57.60;;;25.65;42.84;101559.94;5094547;28;20216;-64
2022/07/03 06:13:13;;;;;;;3.70;2.37;;;22.60;57.60;;;25.79;42.65;101563.88;5094677;28;20185;-64
2022/07/03 06:15:40;;;;;;;2.53;2.33;;;22.70;57.60;;;25.94;41.73;101564.00;5094765;28;20185;-64
2022/07/03 06:18:08;;;;;;;4.30;2.20;;;22.80;57.30;;;26.09;41.86;101564.13;5094430;28;20207;-65
2022/07/03 06:20:35;;;;;;;2.40;2.13;;;22.90;57.20;;;26.23;41.81;101565.38;5094269;28;20187;-64
2022/07/03 06:23:02;;;;;;;2.70;2.17;;;23.00;56.80;;;26.33;41.16;101557.34;5094411;28;20195;-64
2022/07/03 06:25:31;;;;;;;5.00;2.30;;;23.10;56.40;;;26.42;41.25;101561.19;5094805;28;20651;-64
2022/07/03 06:27:59;;;;;;;2.20;2.00;;;23.30;56.20;;;26.50;41.24;101563.44;5094526;28;20709;-64
2022/07/03 06:30:32;;;;;;;2.70;2.23;;;23.30;56.10;;;26.57;40.95;101563.19;5092485;28;20733;-64
2022/07/03 06:32:59;;;;;;;4.30;2.10;;;23.40;55.80;;;26.65;40.95;101560.81;5094282;28;20224;-64
2022/07/03 06:35:27;;;;;;;3.30;1.93;;;23.50;55.60;;;26.73;40.55;101562.22;5094539;28;20219;-63
2022/07/03 06:37:54;;;;;;;2.20;2.00;;;23.60;55.20;;;26.80;39.57;101557.41;5094271;28;20188;-63
2022/07/03 06:40:22;;;;;;;2.13;1.93;;;23.70;54.70;;;26.86;39.68;101551.75;5093592;28;20188;-63
2022/07/03 06:42:51;;;;;;;3.33;2.50;;;23.70;54.70;;;26.97;39.38;101554.53;5094304;28;20216;-63
2022/07/03 06:45:18;;;;;;;2.70;1.77;;;23.90;54.40;;;27.08;39.18;101550.78;5094652;28;20209;-64
2022/07/03 06:47:45;;;;;;;2.50;1.80;;;23.90;53.60;;;27.19;38.91;101557.88;5094445;28;20193;-64
2022/07/03 06:50:13;;;;;;;4.30;2.53;;;24.00;53.50;;;27.28;38.50;101549.00;5093790;28;20216;-64
2022/07/03 06:52:40;;;;;;;3.10;2.53;;;24.10;52.90;;;27.39;38.05;101552.56;5092608;28;20291;-64
2022/07/03 06:55:08;;;;;;;3.50;2.70;;;24.20;52.70;;;27.47;38.39;101543.94;5093878;28;20188;-64
2022/07/03 06:57:36;;;;;;;4.83;3.00;;;24.40;52.80;;;27.59;38.26;101544.50;5094048;28;20202;-64
2022/07/03 07:00:07;;;;;;;2.90;2.60;;;24.40;52.30;;;27.68;37.77;101542.91;5094345;28;20193;-64
2022/07/03 07:02:34;;;;;;;4.13;3.63;;;24.60;52.00;;;27.78;37.33;101552.94;5093017;28;20209;-64
2022/07/03 07:05:02;;;;;;;6.00;3.80;;;24.60;51.30;;;27.88;37.13;101553.75;5093609;28;20184;-64
2022/07/03 07:07:29;;;;;;;4.67;3.40;;;24.70;51.20;;;28.02;36.98;101554.88;5093825;28;20192;-64
2022/07/03 07:09:57;;;;;;;4.97;3.00;;;24.80;50.90;;;28.17;36.82;101551.34;5094091;28;20189;-64
2022/07/03 07:12:25;;;;;;;5.37;3.43;;;24.90;50.50;;;28.34;36.04;101561.91;5092872;28;20212;-64
2022/07/03 07:14:56;;;;;;;4.57;3.43;;;25.10;50.00;;;28.52;35.84;101558.63;5093751;28;20192;-64
2022/07/03 07:17:25;;;;;;;3.87;2.83;;;25.20;49.80;;;28.78;35.41;101557.53;5092567;28;20646;-64
2022/07/03 07:19:54;;;;;;;11.77;3.40;;;25.40;49.40;;;29.03;34.65;101560.16;5093718;28;20229;-64
2022/07/03 07:22:22;;;;;;;5.57;3.10;;;25.60;48.20;;;29.22;34.01;101558.47;5093397;28;20554;-64
2022/07/03 07:24:49;;;;;;;3.10;2.37;;;25.70;47.00;;;29.44;33.68;101561.63;5093598;28;20199;-64
2022/07/03 07:27:17;;;;;;;3.40;2.70;;;26.00;47.40;;;29.67;33.34;101562.84;5093864;28;20207;-64
2022/07/03 07:29:44;;;;;;;3.10;2.47;;;26.10;47.30;;;29.87;34.07;101564.63;5092349;28;20188;-64
2022/07/03 07:32:12;;;;;;;5.33;2.80;;;26.30;46.80;;;29.99;32.76;101563.19;5092290;28;20212;-63
2022/07/03 07:34:41;;;;;;;4.43;2.60;;;26.50;45.70;;;30.10;32.42;101569.34;5091580;28;20212;-64
2022/07/03 07:37:08;;;;;;;3.47;2.40;;;26.70;44.80;;;30.21;31.95;101578.22;5093732;28;20184;-64
2022/07/03 07:39:36;;;;;;;5.70;3.23;;;26.80;44.70;;;30.30;32.25;101574.63;5094137;28;20189;-64
2022/07/03 07:42:04;;;;;;;4.97;3.10;;;26.90;44.40;;;30.34;31.25;101572.97;5092914;28;20209;-64
2022/07/03 07:44:31;;;;;;;4.70;2.70;;;27.00;43.40;;;30.33;30.94;101565.94;5093468;28;20195;-64
2022/07/03 07:46:59;;;;;;;5.13;3.07;;;27.10;42.40;;;30.33;31.49;101567.81;5092728;28;20191;-64
2022/07/03 07:49:26;;;;;;;2.93;2.50;;;27.20;42.30;;;30.34;31.04;101569.44;5093104;28;20194;-65
2022/07/03 07:51:55;;;;;;;5.43;3.60;;;27.20;41.70;;;30.33;29.92;101565.94;5092336;28;20248;-64
2022/07/03 07:54:22;;;;;;;5.40;2.80;;;27.30;40.50;;;30.35;30.01;101576.50;5093405;28;20211;-64
2022/07/03 07:56:50;;;;;;;4.27;2.40;;;27.30;40.70;;;30.42;30.32;101571.56;5092742;28;20184;-64
2022/07/03 07:59:18;;;;;;;3.77;2.13;;;27.30;40.40;;;30.47;29.90;101575.03;5093319;28;20189;-64
2022/07/03 08:07:19;;;;;;;3.30;2.77;;;27.50;39.70;;;30.50;29.13;101574.44;5093082;28;20193;-64
2022/07/03 08:09:46;;;;;;;5.20;2.87;;;27.60;39.00;;;30.50;29.01;101576.38;5093164;28;20188;-64
2022/07/03 08:12:14;;;;;;;6.70;3.47;;;27.60;38.70;;;30.50;29.36;101574.44;5092958;28;20224;-64
2022/07/03 08:14:41;;;;;;;5.93;2.90;;;27.60;38.60;;;30.52;29.11;101576.91;5092493;28;20194;-64
2022/07/03 08:17:09;;;;;;;6.57;3.00;;;27.60;38.30;;;30.52;28.76;101576.91;5092495;28;20199;-64
2022/07/03 08:19:36;;;;;;;3.00;2.40;;;27.60;37.90;;;30.83;28.73;101574.66;5092273;28;20195;-64
2022/07/03 08:22:04;;;;;;;3.43;2.70;;;27.70;38.40;;;31.73;27.67;101580.91;5091237;28;20211;-64
2022/07/03 08:24:32;;;;;;;4.17;2.20;;;27.90;38.60;;;32.99;26.43;101576.00;5092919;28;20187;-64
2022/07/03 08:27:00;;;;;;;2.77;1.97;;;28.30;37.60;;;34.41;24.42;101577.13;5092611;28;20577;-64
2022/07/03 08:29:27;;;;;;;4.07;2.00;;;28.90;36.60;;;35.82;22.94;101582.09;5094358;28;20220;-63
2022/07/03 08:32:03;;;;;;;2.10;1.90;;;29.70;35.40;;;37.24;21.68;101577.97;5095080;28;20208;-65
2022/07/03 08:34:31;;;;;;;2.77;1.57;;;30.50;32.90;;;38.11;19.45;101579.69;5096665;28;20192;-64
2022/07/03 08:36:58;;;;;;;4.18;1.92;;;31.40;30.10;;;39.01;18.79;101585.16;5096050;28;20677;-64
2022/07/03 08:39:26;;;;;;;3.58;2.05;;;32.10;29.40;;;39.80;18.25;101593.50;5096582;28;20238;-64
2022/07/03 08:41:58;;;;;;;5.38;1.95;;;32.90;28.30;;;40.38;17.35;101586.44;5095810;28;20514;-63
2022/07/03 08:44:27;;;;;;;2.95;2.13;;;33.60;26.90;;;40.59;16.31;101583.44;5096740;28;20203;-64
2022/07/03 08:46:59;;;;;;;2.30;2.10;;;34.20;25.80;;;40.00;16.46;101590.88;5094713;28;20202;-64
2022/07/03 08:49:28;;;;;;;2.83;1.90;;;34.50;24.40;;;39.97;16.83;101595.16;5096486;28;20191;-63
2022/07/03 08:51:55;;;;;;;2.80;1.80;;;34.60;24.30;;;40.86;16.23;101576.25;5095359;28;20230;-64
2022/07/03 08:54:23;;;;;;;1.85;1.45;;;34.80;24.50;;;42.05;15.65;101578.03;5095736;28;20197;-63
2022/07/03 08:56:50;;;;;;;2.38;1.45;;;35.10;24.50;;;42.96;15.00;101581.63;5096284;28;20199;-64
2022/07/03 08:59:23;;;;;;;1.55;1.42;;;35.60;24.20;;;43.42;14.07;101584.25;5095916;28;20250;-63
2022/07/03 09:01:52;;;;;;;2.50;1.63;;;36.10;22.60;;;43.56;14.08;101584.44;5095963;28;20287;-63
2022/07/03 09:04:21;;;;;;;6.43;2.03;;;36.50;22.70;;;44.12;13.60;101578.78;5096112;28;20189;-63
2022/07/03 09:06:51;;;;;;;1.60;1.50;;;36.80;22.20;;;44.70;13.58;101582.47;5096252;28;20189;-64
2022/07/03 09:09:22;;;;;;;3.38;1.50;;;37.20;22.20;;;45.15;12.79;101574.84;5095724;28;20216;-64
2022/07/03 09:11:52;;;;;;;2.67;2.15;;;37.60;21.90;;;45.68;12.52;101575.91;5095336;28;20220;-64
2022/07/03 09:14:20;;;;;;;2.55;2.22;;;38.00;21.40;;;46.30;12.45;101574.44;5095628;28;20195;-64
2022/07/03 09:16:49;;;;;;;3.03;1.65;;;38.40;20.90;;;46.62;11.69;101568.09;5096180;28;20192;-64
2022/07/03 09:19:43;;;;;;;2.60;1.67;;;38.70;20.20;;;46.74;11.22;101568.47;5095074;28;20192;-63
2022/07/03 09:22:23;;;;;;;3.30;1.55;;;39.00;19.30;;;46.72;12.04;101570.06;5094789;28;20211;-64
2022/07/03 09:24:52;;;;;;;2.72;1.65;;;39.20;19.70;;;47.08;11.29;101577.19;5094456;28;20207;-63
2022/07/03 09:27:22;;;;;;;4.47;2.35;;;39.40;19.30;;;47.38;11.22;101566.31;5095198;28;20188;-63
2022/07/03 09:30:10;;;;;;;2.45;2.05;;;39.60;19.30;;;47.62;10.99;101569.44;5095760;28;20185;-63
2022/07/03 09:32:46;;;;;;;3.78;3.10;;;39.90;19.60;;;47.75;10.61;101564.94;5094946;28;20223;-64
2022/07/03 09:35:19;;;;;;;2.78;1.73;;;40.00;18.50;;;47.59;10.92;101562.66;5094154;28;20192;-63
2022/07/03 09:37:52;;;;;;;2.97;2.10;;;40.10;18.70;;;47.87;10.88;101572.88;5094951;28;20275;-63
2022/07/03 09:40:21;;;;;;;1.70;1.60;;;40.10;18.60;;;48.27;10.78;101566.63;5094701;28;20199;-63
2022/07/03 09:43:00;;;;;;;3.08;1.48;;;40.30;19.00;;;48.66;10.68;101569.09;5094261;28;20208;-63
2022/07/03 09:45:50;;;;;;;2.03;1.75;;;40.60;18.70;;;48.96;10.51;101569.19;5095613;28;20200;-63
2022/07/03 09:48:27;;;;;;;1.40;1.40;;;40.90;17.90;;;49.07;10.51;101574.69;5095213;28;20541;-63
2022/07/03 09:51:19;;;;;;;1.83;1.50;;;41.00;18.50;;;49.17;9.51;101559.72;5094458;28;20243;-63
2022/07/03 09:53:51;;;;;;;1.85;1.50;;;41.20;18.00;;;49.15;10.31;101560.16;5094972;28;20188;-63
2022/07/03 09:56:26;;;;;;;1.48;1.38;;;41.40;17.50;;;49.50;9.47;101553.31;5095113;28;20238;-63
2022/07/03 09:59:07;;;;;;;1.60;1.20;;;41.50;18.00;;;49.60;9.91;101558.00;5109729;28;20215;-67
2022/07/03 10:01:37;;;;;;;1.00;1.00;;;41.60;17.80;;;49.38;9.86;101559.50;5094800;28;20208;-63
2022/07/03 10:04:18;;;;;;;1.65;1.30;;;41.70;17.80;;;49.75;10.44;101565.00;5094617;28;20189;-63
2022/07/03 10:06:54;;;;;;;1.90;1.75;;;41.70;17.80;;;49.89;9.28;101564.81;5094247;28;20199;-63
2022/07/03 10:09:24;;;;;;;1.70;1.60;;;41.70;17.90;;;49.77;9.50;101570.97;5094955;28;20650;-63
2022/07/03 10:11:54;;;;;;;1.38;1.27;;;41.70;18.00;;;49.52;10.22;101562.13;5094668;28;20291;-63
2022/07/03 10:14:24;;;;;;;2.05;1.50;;;41.80;18.20;;;49.72;9.79;101565.84;5094389;28;20193;-63
2022/07/03 10:16:55;;;;;;;2.00;1.83;;;41.90;18.10;;;49.37;9.76;101566.31;5093506;28;20529;-63
2022/07/03 10:19:26;;;;;;;1.85;1.70;;;41.90;17.50;;;49.24;10.49;101562.47;5094498;28;20188;-63
2022/07/03 10:21:56;;;;;;;1.60;1.50;;;41.90;17.80;;;49.56;9.60;101562.09;5093773;28;20678;-63
2022/07/03 10:24:26;;;;;;;1.88;1.60;;;41.90;18.00;;;50.02;9.42;101562.22;5094343;28;20259;-63
2022/07/03 10:26:55;;;;;;;2.35;1.70;;;42.00;18.20;;;50.37;9.10;101564.44;5094552;28;20197;-63
2022/07/03 10:29:25;;;;;;;2.08;1.30;;;42.00;17.90;;;50.39;9.26;101569.63;5094145;28;20651;-63
2022/07/03 10:31:57;;;;;;;1.58;1.42;;;42.20;18.00;;;50.11;10.16;101562.47;5093556;28;20219;-63
2022/07/03 10:34:28;;;;;;;1.40;1.30;;;42.20;17.50;;;50.28;9.46;101566.22;5093658;28;20689;-63
2022/07/03 10:37:00;;;;;;;1.60;1.50;;;42.20;17.50;;;50.05;9.11;101567.75;5093579;28;20581;-63